Time;durP1;ratioP1;P1;durP2;ratioP2;P2;SDS_P1;SDS_P2;PMS_P1;PMS_P2;Temp;Humidity;BMP_temperature;BMP_pressure;BME280_temperature;BME280_humidity;BME280_pressure;Samples;Min_cycle;Max_cycle;Signal;HPM_P1;HPM_P2
2020/12/11 00:00:45;;;;;;;10.00;6.15;;;20.70;38.30;;;;;;1498723;94;21237;-31
2020/12/11 00:03:13;;;;;;;11.73;5.35;;;20.70;38.30;;;;;;1498639;94;21429;-29
2020/12/11 00:05:40;;;;;;;12.98;6.17;;;20.70;38.40;;;;;;1501560;94;21759;-32
2020/12/11 00:08:09;;;;;;;6.72;4.40;;;20.70;38.40;;;;;;1497858;94;21297;-28
2020/12/11 00:10:37;;;;;;;11.40;5.10;;;20.60;38.40;;;;;;1497561;94;21214;-34
2020/12/11 00:13:05;;;;;;;10.20;5.70;;;20.60;38.30;;;;;;1498031;94;21378;-37
2020/12/11 00:15:33;;;;;;;11.10;5.40;;;20.70;38.40;;;;;;1500069;94;21232;-33
2020/12/11 00:18:00;;;;;;;11.45;5.20;;;20.70;38.40;;;;;;1490689;94;22659;-31
2020/12/11 00:20:28;;;;;;;10.43;5.33;;;20.70;38.30;;;;;;1485645;94;21233;-31
2020/12/11 00:22:56;;;;;;;9.28;5.25;;;20.60;38.40;;;;;;1483109;94;21786;-29
2020/12/11 00:25:23;;;;;;;10.23;5.22;;;20.60;38.30;;;;;;1463304;94;21351;-30
2020/12/11 00:27:51;;;;;;;8.35;5.10;;;20.60;38.30;;;;;;1486835;94;21233;-31
2020/12/11 00:30:19;;;;;;;9.75;4.85;;;20.60;38.30;;;;;;1485000;94;21785;-30
2020/12/11 00:32:46;;;;;;;10.50;4.97;;;20.60;38.40;;;;;;1486793;94;21372;-33
2020/12/11 00:35:15;;;;;;;10.60;4.95;;;20.60;38.40;;;;;;1467739;95;21319;-29
2020/12/11 00:37:43;;;;;;;13.75;5.90;;;20.60;38.30;;;;;;1484906;94;21246;-32
2020/12/11 00:40:11;;;;;;;8.75;5.15;;;20.60;38.30;;;;;;1485294;94;21265;-36
2020/12/11 00:42:39;;;;;;;6.95;4.78;;;20.50;38.20;;;;;;1484510;94;21130;-32
2020/12/11 00:45:06;;;;;;;11.33;5.35;;;20.50;38.10;;;;;;1485448;94;21296;-30
2020/12/11 00:47:34;;;;;;;9.43;5.20;;;20.50;38.20;;;;;;1485327;94;21194;-32
2020/12/11 00:50:02;;;;;;;8.40;5.10;;;20.60;38.30;;;;;;1486408;94;21228;-33
2020/12/11 00:52:29;;;;;;;8.95;5.15;;;20.60;38.30;;;;;;1486281;94;21627;-30
2020/12/11 00:54:57;;;;;;;9.88;5.22;;;20.50;38.20;;;;;;1486579;94;21162;-29
2020/12/11 00:57:25;;;;;;;9.70;5.20;;;20.50;38.10;;;;;;1484440;94;21694;-32
2020/12/11 00:59:57;;;;;;;8.90;4.90;;;20.50;38.20;;;;;;1469965;95;21207;-33
2020/12/11 01:02:22;;;;;;;9.25;4.78;;;20.50;38.20;;;;;;1486172;94;21203;-28
2020/12/11 01:04:49;;;;;;;10.35;5.03;;;20.50;38.20;;;;;;1481625;94;22535;-29
2020/12/11 01:07:17;;;;;;;7.42;4.55;;;20.50;38.20;;;;;;1486991;94;21218;-32
2020/12/11 01:09:44;;;;;;;10.40;4.75;;;20.50;38.30;;;;;;1480683;94;21233;-29
2020/12/11 01:12:12;;;;;;;9.43;4.78;;;20.50;38.30;;;;;;1485011;94;21489;-29
2020/12/11 01:14:40;;;;;;;7.95;5.03;;;20.50;38.30;;;;;;1468257;96;21308;-32
2020/12/11 01:17:07;;;;;;;5.95;4.58;;;20.50;38.40;;;;;;1478310;94;21241;-30
2020/12/11 01:19:35;;;;;;;6.03;4.03;;;20.50;38.50;;;;;;1472909;94;21238;-30
2020/12/11 01:22:04;;;;;;;8.63;4.67;;;20.50;38.40;;;;;;1489402;94;22394;-29
2020/12/11 01:24:32;;;;;;;6.22;4.25;;;20.50;38.50;;;;;;1488970;94;21249;-32
2020/12/11 01:27:00;;;;;;;7.78;4.20;;;20.50;38.50;;;;;;1496897;94;21834;-29
2020/12/11 01:29:28;;;;;;;6.90;4.65;;;20.50;38.50;;;;;;1497420;94;21254;-30
2020/12/11 01:31:59;;;;;;;9.38;5.17;;;20.50;38.50;;;;;;1496079;94;21359;-32
2020/12/11 01:34:27;;;;;;;9.75;5.12;;;20.50;38.60;;;;;;1495946;94;21258;-30
2020/12/11 01:36:55;;;;;;;7.10;4.70;;;20.50;38.60;;;;;;1495021;94;21858;-36
2020/12/11 01:39:23;;;;;;;7.25;4.58;;;20.50;38.60;;;;;;1494381;94;21231;-29
2020/12/11 01:41:51;;;;;;;7.08;5.00;;;20.40;38.60;;;;;;1494686;94;21684;-35
2020/12/11 01:44:18;;;;;;;6.65;4.42;;;20.40;38.60;;;;;;1497379;94;21237;-27
2020/12/11 01:46:49;;;;;;;7.50;4.40;;;20.40;38.50;;;;;;1433841;97;21420;-32
2020/12/11 01:49:17;;;;;;;6.28;4.40;;;20.40;38.50;;;;;;1497757;94;21211;-29
2020/12/11 01:51:47;;;;;;;8.30;4.80;;;20.40;38.50;;;;;;1493809;94;21533;-30
2020/12/11 01:54:15;;;;;;;7.22;4.80;;;20.40;38.50;;;;;;1481806;94;21221;-29
2020/12/11 01:56:57;;;;;;;6.80;4.80;;;20.40;38.50;;;;;;1496517;94;21217;-30
2020/12/11 01:59:40;;;;;;;8.40;4.40;;;20.40;38.50;;;;;;1499691;94;67407;-31
2020/12/11 02:02:12;;;;;;;6.17;4.33;;;20.40;38.50;;;;;;1437778;97;67607;-33
2020/12/11 02:04:40;;;;;;;7.22;4.65;;;20.40;38.50;;;;;;1463915;96;22388;-29
2020/12/11 02:07:08;;;;;;;7.75;4.55;;;20.40;38.50;;;;;;1466174;95;21710;-34
2020/12/11 02:09:38;;;;;;;7.53;4.92;;;20.40;38.50;;;;;;1481822;95;21290;-28
2020/12/11 02:12:06;;;;;;;7.92;4.35;;;20.40;38.50;;;;;;1485831;95;21380;-30
2020/12/11 02:14:34;;;;;;;6.87;4.67;;;20.40;38.50;;;;;;1479149;95;21251;-32
2020/12/11 02:17:04;;;;;;;9.18;4.83;;;20.40;38.50;;;;;;1462149;95;21214;-30
2020/12/11 02:19:33;;;;;;;8.03;4.70;;;20.40;38.50;;;;;;1480770;94;21422;-30
2020/12/11 02:22:05;;;;;;;5.53;4.40;;;20.40;38.60;;;;;;1480422;95;21764;-36
2020/12/11 02:24:33;;;;;;;9.23;5.03;;;20.40;38.60;;;;;;1487565;94;21164;-30
2020/12/11 02:27:03;;;;;;;5.80;4.10;;;20.30;38.60;;;;;;1483576;94;21534;-33
2020/12/11 02:29:31;;;;;;;7.60;4.58;;;20.30;38.50;;;;;;1488260;94;21234;-29
2020/12/11 02:31:58;;;;;;;6.03;4.70;;;20.40;38.60;;;;;;1461857;95;21274;-30
2020/12/11 02:34:27;;;;;;;5.58;4.35;;;20.30;38.60;;;;;;1483310;94;21433;-32
2020/12/11 02:37:03;;;;;;;8.20;4.45;;;20.30;38.70;;;;;;1474304;95;21283;-35
2020/12/11 02:39:31;;;;;;;6.90;4.37;;;20.30;38.70;;;;;;1478858;94;21243;-28
2020/12/11 02:41:59;;;;;;;6.28;4.55;;;20.30;38.60;;;;;;1483906;94;21415;-30
2020/12/11 02:44:26;;;;;;;6.42;4.60;;;20.30;38.60;;;;;;1486985;94;21303;-30
2020/12/11 02:46:54;;;;;;;7.33;5.17;;;20.40;38.70;;;;;;1479538;95;21690;-29
2020/12/11 02:49:22;;;;;;;5.42;4.15;;;20.30;38.70;;;;;;1484384;95;21232;-36
2020/12/11 02:51:49;;;;;;;7.05;4.95;;;20.30;38.70;;;;;;1478736;94;21717;-31
2020/12/11 02:54:17;;;;;;;5.47;4.08;;;20.40;38.60;;;;;;1479131;95;21392;-29
2020/12/11 02:56:45;;;;;;;7.40;4.47;;;20.40;38.70;;;;;;1479620;93;21256;-35
2020/12/11 02:59:12;;;;;;;5.53;4.53;;;20.40;38.60;;;;;;1463944;95;21591;-33
2020/12/11 03:01:40;;;;;;;6.65;4.47;;;20.30;38.60;;;;;;1485228;93;21238;-29
2020/12/11 03:04:07;;;;;;;6.33;4.10;;;20.40;38.60;;;;;;1462626;95;21585;-29
2020/12/11 03:06:35;;;;;;;7.70;4.42;;;20.40;38.60;;;;;;1477376;95;21223;-31
2020/12/11 03:09:04;;;;;;;6.60;4.28;;;20.40;38.50;;;;;;1471104;95;21191;-28
2020/12/11 03:11:32;;;;;;;8.98;4.37;;;20.40;38.50;;;;;;1459345;96;21309;-31
2020/12/11 03:13:59;;;;;;;4.92;3.98;;;20.50;38.80;;;;;;1478151;94;21874;-29
2020/12/11 03:16:27;;;;;;;7.17;5.03;;;20.50;38.60;;;;;;1477794;95;21289;-33
2020/12/11 03:18:54;;;;;;;6.62;4.62;;;20.40;38.50;;;;;;1479173;94;21309;-35
2020/12/11 03:21:22;;;;;;;6.90;4.60;;;20.50;38.60;;;;;;1479253;95;21927;-34
2020/12/11 03:23:50;;;;;;;5.95;4.37;;;20.40;38.50;;;;;;1449364;95;21402;-31
2020/12/11 03:26:18;;;;;;;7.83;4.35;;;20.40;38.50;;;;;;1479348;94;21211;-28
2020/12/11 03:28:45;;;;;;;6.55;3.95;;;20.50;38.60;;;;;;1479608;94;21300;-32
2020/12/11 03:31:13;;;;;;;6.33;5.03;;;20.50;38.60;;;;;;1478075;94;21218;-37
2020/12/11 03:33:41;;;;;;;4.90;3.77;;;20.50;38.60;;;;;;1478572;95;21896;-33
2020/12/11 03:36:08;;;;;;;6.03;4.17;;;20.40;38.50;;;;;;1479411;94;21311;-30
2020/12/11 03:38:36;;;;;;;6.08;4.28;;;20.50;38.50;;;;;;1479611;94;21344;-29
2020/12/11 03:41:03;;;;;;;5.65;4.12;;;20.50;38.50;;;;;;1478578;94;21847;-33
2020/12/11 03:43:31;;;;;;;5.92;4.35;;;20.50;38.50;;;;;;1464007;94;21566;-31
2020/12/11 03:45:59;;;;;;;6.42;4.20;;;20.50;38.50;;;;;;1478794;94;22137;-35
2020/12/11 03:48:26;;;;;;;9.23;4.42;;;20.50;38.50;;;;;;1476721;94;21242;-32
2020/12/11 03:50:54;;;;;;;9.00;3.65;;;20.50;38.50;;;;;;1478522;94;21264;-33
2020/12/11 03:53:22;;;;;;;4.85;3.90;;;20.50;38.40;;;;;;1478170;95;21298;-32
2020/12/11 03:55:49;;;;;;;6.37;4.33;;;20.60;38.50;;;;;;1450830;95;21191;-29
2020/12/11 03:58:17;;;;;;;7.15;4.37;;;20.50;38.50;;;;;;1479023;94;21695;-30
2020/12/11 04:00:44;;;;;;;7.12;4.28;;;20.50;38.50;;;;;;1479771;94;21623;-35
2020/12/11 04:03:12;;;;;;;6.78;4.75;;;20.60;38.50;;;;;;1479514;95;21360;-30
2020/12/11 04:05:40;;;;;;;6.10;4.15;;;20.60;38.50;;;;;;1478209;94;21422;-35
2020/12/11 04:08:07;;;;;;;6.12;4.12;;;20.60;38.50;;;;;;1478244;94;21218;-33
2020/12/11 04:10:35;;;;;;;5.58;4.30;;;20.60;38.50;;;;;;1476489;94;21622;-33
2020/12/11 04:13:03;;;;;;;5.37;4.15;;;20.60;38.50;;;;;;1478369;94;21397;-32
2020/12/11 04:15:30;;;;;;;4.87;3.85;;;20.60;38.40;;;;;;1461809;95;22732;-33
2020/12/11 04:17:58;;;;;;;4.80;4.17;;;20.60;38.50;;;;;;1481364;94;21243;-31
2020/12/11 04:20:26;;;;;;;5.87;4.15;;;20.60;38.50;;;;;;1478999;94;21313;-34
2020/12/11 04:22:53;;;;;;;5.03;3.75;;;20.60;38.50;;;;;;1470996;96;21413;-30
2020/12/11 04:25:21;;;;;;;5.30;4.17;;;20.60;38.50;;;;;;1471108;96;21204;-29
2020/12/11 04:27:49;;;;;;;5.47;3.87;;;20.60;38.50;;;;;;1470627;96;21227;-29
2020/12/11 04:30:16;;;;;;;6.25;4.35;;;20.60;38.50;;;;;;1470139;96;21537;-33
2020/12/11 04:32:44;;;;;;;5.12;3.85;;;20.60;38.50;;;;;;1474801;96;21537;-35
2020/12/11 04:35:11;;;;;;;5.67;3.87;;;20.60;38.50;;;;;;1454898;96;21642;-33
2020/12/11 04:37:39;;;;;;;7.28;4.87;;;20.60;38.50;;;;;;1468530;96;21309;-31
2020/12/11 04:40:07;;;;;;;4.85;3.77;;;20.60;38.50;;;;;;1470764;96;21322;-30
2020/12/11 04:42:37;;;;;;;5.60;4.10;;;20.60;38.50;;;;;;1454874;96;21784;-35
2020/12/11 04:45:05;;;;;;;5.33;3.60;;;20.60;38.50;;;;;;1469861;96;22732;-33
2020/12/11 04:47:33;;;;;;;5.08;3.87;;;20.60;38.50;;;;;;1456503;96;21317;-34
2020/12/11 04:50:00;;;;;;;5.30;3.83;;;20.60;38.50;;;;;;1470538;96;21574;-33
2020/12/11 04:52:31;;;;;;;4.97;3.83;;;20.60;38.50;;;;;;1469698;96;21301;-37
2020/12/11 04:55:01;;;;;;;6.62;4.62;;;20.70;38.50;;;;;;1470826;96;21835;-28
2020/12/11 04:57:32;;;;;;;7.10;4.15;;;20.60;38.50;;;;;;1471404;94;21305;-28
2020/12/11 05:00:00;;;;;;;5.47;4.00;;;20.70;38.60;;;;;;1470659;96;21317;-33
2020/12/11 05:02:28;;;;;;;5.00;4.05;;;20.70;38.50;;;;;;1456296;96;21280;-31
2020/12/11 05:04:58;;;;;;;3.90;3.37;;;20.70;39.00;;;;;;1469581;96;21318;-33
2020/12/11 05:07:27;;;;;;;4.80;3.98;;;20.70;38.50;;;;;;1471083;96;21877;-30
2020/12/11 05:09:58;;;;;;;6.17;3.92;;;20.70;38.50;;;;;;1470281;96;21195;-32
2020/12/11 05:12:25;;;;;;;6.47;4.12;;;20.60;38.50;;;;;;1469932;96;21545;-29
2020/12/11 05:15:07;;;;;;;3.98;3.17;;;20.70;38.50;;;;;;1454217;96;21792;-35
2020/12/11 05:17:37;;;;;;;5.55;4.08;;;20.70;38.50;;;;;;1470817;96;21247;-34
2020/12/11 05:20:07;;;;;;;5.70;3.98;;;20.70;38.50;;;;;;1471321;95;21734;-33
2020/12/11 05:22:36;;;;;;;8.28;4.15;;;20.70;38.60;;;;;;1456306;96;21215;-34
2020/12/11 05:25:13;;;;;;;7.75;4.20;;;20.70;38.60;;;;;;1471675;96;21317;-36
2020/12/11 05:27:41;;;;;;;5.95;4.12;;;20.70;38.60;;;;;;1469843;96;21227;-30
2020/12/11 05:30:13;;;;;;;4.53;3.65;;;20.60;38.50;;;;;;1469217;96;21227;-37
2020/12/11 05:32:46;;;;;;;6.20;3.87;;;20.70;38.50;;;;;;1471191;96;21327;-32
2020/12/11 05:35:19;;;;;;;5.75;3.58;;;20.70;38.60;;;;;;1467119;96;21724;-31
2020/12/11 05:38:07;;;;;;;6.03;3.72;;;20.70;38.60;;;;;;1469612;94;21777;-31
2020/12/11 05:40:43;;;;;;;5.55;3.87;;;20.70;38.60;;;;;;1475342;94;67762;-32
2020/12/11 05:43:19;;;;;;;5.42;3.62;;;20.70;39.20;;;;;;1489989;94;21612;-34
2020/12/11 05:45:57;;;;;;;7.30;4.03;;;20.70;38.60;;;;;;1489225;94;21237;-35
2020/12/11 05:48:37;;;;;;;5.58;4.35;;;20.70;38.60;;;;;;1492888;94;21200;-36
2020/12/11 05:51:15;;;;;;;4.75;3.47;;;20.70;38.60;;;;;;1485440;94;67599;-35
2020/12/11 05:53:44;;;;;;;5.10;3.58;;;20.70;38.60;;;;;;1466040;94;21764;-31
2020/12/11 05:56:12;;;;;;;5.72;3.72;;;20.70;38.50;;;;;;1496070;94;21238;-35
2020/12/11 05:58:42;;;;;;;5.67;3.80;;;20.70;38.50;;;;;;1492586;94;21237;-29
2020/12/11 06:01:13;;;;;;;4.15;3.55;;;20.70;38.40;;;;;;1490851;94;21251;-35
2020/12/11 06:03:41;;;;;;;5.85;4.03;;;20.70;38.30;;;;;;1490147;94;21227;-36
2020/12/11 06:06:09;;;;;;;5.33;3.75;;;20.80;38.40;;;;;;1494103;93;21803;-34
2020/12/11 06:08:39;;;;;;;5.53;3.70;;;20.80;38.30;;;;;;1497188;94;21223;-35
2020/12/11 06:11:10;;;;;;;4.92;3.65;;;20.80;38.40;;;;;;1489130;94;22515;-31
2020/12/11 06:13:43;;;;;;;7.00;3.62;;;20.80;38.30;;;;;;1492778;94;21706;-30
2020/12/11 06:16:13;;;;;;;6.45;3.87;;;20.80;38.40;;;;;;1489742;94;21214;-33
2020/12/11 06:18:43;;;;;;;5.53;4.20;;;20.90;38.30;;;;;;1492734;94;21723;-33
2020/12/11 06:21:11;;;;;;;5.80;3.40;;;20.90;38.30;;;;;;1483287;94;21729;-33
2020/12/11 06:23:42;;;;;;;4.67;3.80;;;20.90;38.20;;;;;;1497243;94;21341;-31
2020/12/11 06:26:12;;;;;;;4.53;3.50;;;20.90;38.20;;;;;;1497299;94;21635;-36
2020/12/11 06:28:45;;;;;;;5.42;3.67;;;20.90;38.10;;;;;;1496929;94;21281;-38
2020/12/11 06:31:14;;;;;;;6.22;3.87;;;21.00;38.10;;;;;;1496789;94;21238;-32
2020/12/11 06:33:47;;;;;;;4.67;3.75;;;21.00;38.20;;;;;;1478144;94;21217;-34
2020/12/11 06:36:16;;;;;;;5.67;3.25;;;21.00;38.00;;;;;;1497324;94;21250;-35
2020/12/11 06:38:45;;;;;;;6.28;3.90;;;21.00;38.00;;;;;;1495065;93;21239;-33
2020/12/11 06:41:16;;;;;;;7.00;3.37;;;21.10;38.30;;;;;;1466328;94;21185;-32
2020/12/11 06:43:47;;;;;;;6.05;3.70;;;21.10;38.40;;;;;;1490988;94;21227;-33
2020/12/11 06:46:20;;;;;;;7.45;4.12;;;21.20;38.90;;;;;;1496735;94;21412;-35
2020/12/11 06:49:08;;;;;;;4.60;3.40;;;21.20;38.70;;;;;;1492353;94;21313;-33
2020/12/11 06:51:45;;;;;;;5.87;3.50;;;21.20;38.50;;;;;;1489425;93;67567;-31
2020/12/11 06:54:15;;;;;;;3.95;3.30;;;21.30;39.50;;;;;;1459766;94;21166;-37
2020/12/11 06:56:44;;;;;;;4.28;3.35;;;21.30;38.70;;;;;;1470147;94;21955;-32
2020/12/11 06:59:33;;;;;;;4.95;3.20;;;21.40;38.90;;;;;;1488474;94;21212;-32
2020/12/11 07:02:15;;;;;;;7.12;3.62;;;21.40;38.90;;;;;;1488480;88;68286;-33
2020/12/11 07:04:40;;;;;;;4.35;3.10;;;21.40;39.60;;;;;;1488585;93;21841;-34
2020/12/11 07:07:08;;;;;;;3.65;2.70;;;21.50;38.80;;;;;;1458167;94;21255;-34
2020/12/11 07:09:43;;;;;;;4.53;3.33;;;21.50;38.40;;;;;;1487876;94;22300;-32
2020/12/11 07:12:11;;;;;;;8.85;3.60;;;21.50;38.20;;;;;;1485109;94;21706;-33
2020/12/11 07:14:39;;;;;;;5.10;3.30;;;21.50;38.40;;;;;;1471925;94;21181;-38
2020/12/11 07:17:07;;;;;;;4.90;3.60;;;21.60;38.20;;;;;;1486411;94;21329;-34
2020/12/11 07:19:42;;;;;;;4.45;3.40;;;21.70;38.50;;;;;;1469006;94;21809;-39
2020/12/11 07:22:10;;;;;;;6.22;3.77;;;21.70;38.30;;;;;;1473373;94;67442;-32
2020/12/11 07:24:39;;;;;;;8.95;3.45;;;21.70;38.00;;;;;;1502634;93;21226;-36
2020/12/11 07:27:08;;;;;;;6.90;3.58;;;21.80;37.90;;;;;;1474056;94;21273;-37
2020/12/11 07:29:36;;;;;;;7.50;3.62;;;21.80;37.80;;;;;;1506099;94;21294;-35
2020/12/11 07:32:04;;;;;;;4.92;3.42;;;21.80;38.30;;;;;;1502996;94;21218;-36
2020/12/11 07:34:33;;;;;;;8.60;3.75;;;21.90;37.90;;;;;;1490298;94;21903;-35
2020/12/11 07:37:01;;;;;;;4.65;3.40;;;21.90;38.00;;;;;;1503295;94;21841;-30
2020/12/11 07:39:30;;;;;;;5.15;3.37;;;21.90;37.60;;;;;;1504444;94;21207;-33
2020/12/11 07:42:00;;;;;;;5.35;2.95;;;21.90;37.50;;;;;;1505300;94;21349;-35
2020/12/11 07:44:30;;;;;;;7.72;3.70;;;22.00;37.60;;;;;;1503062;94;21235;-34
2020/12/11 07:47:05;;;;;;;5.22;3.55;;;22.00;37.40;;;;;;1489193;94;21209;-35
2020/12/11 07:49:41;;;;;;;6.45;2.83;;;22.00;38.20;;;;;;1505935;94;21220;-38
2020/12/11 07:52:09;;;;;;;3.92;3.05;;;22.10;37.60;;;;;;1488374;94;22187;-35
2020/12/11 07:54:38;;;;;;;15.13;3.87;;;22.00;37.20;;;;;;1503474;94;21685;-35
2020/12/11 07:57:17;;;;;;;5.03;3.42;;;22.00;37.30;;;;;;1504146;94;21692;-30
2020/12/11 08:00:06;;;;;;;6.85;3.80;;;22.10;38.20;;;;;;1486155;94;21309;-32
2020/12/11 08:02:35;;;;;;;5.40;3.83;;;22.10;38.70;;;;;;1498446;89;68272;-32
2020/12/11 08:05:07;;;;;;;6.15;3.98;;;22.10;38.30;;;;;;1496809;94;21233;-32
2020/12/11 08:07:35;;;;;;;6.53;3.62;;;22.10;38.20;;;;;;1496038;94;21307;-32
2020/12/11 08:10:13;;;;;;;7.95;3.95;;;22.10;38.00;;;;;;1494791;94;21253;-34
2020/12/11 08:12:42;;;;;;;6.95;3.40;;;22.10;38.20;;;;;;1495352;94;21250;-31
2020/12/11 08:15:11;;;;;;;7.80;3.70;;;22.20;38.00;;;;;;1496094;94;21206;-34
2020/12/11 08:17:41;;;;;;;5.55;3.37;;;22.10;37.90;;;;;;1479671;94;21223;-33
2020/12/11 08:20:09;;;;;;;4.83;3.80;;;22.20;38.00;;;;;;1494717;94;22445;-31
2020/12/11 08:22:40;;;;;;;4.53;3.40;;;22.20;38.10;;;;;;1496703;94;21296;-32
2020/12/11 08:25:24;;;;;;;4.95;3.72;;;22.20;37.60;;;;;;1496601;94;21285;-37
2020/12/11 08:27:52;;;;;;;3.55;3.25;;;22.10;38.30;;;;;;1480662;94;68045;-32
2020/12/11 08:30:22;;;;;;;5.17;3.52;;;22.20;37.80;;;;;;1503494;94;21167;-35
2020/12/11 08:32:50;;;;;;;4.53;3.72;;;22.20;37.70;;;;;;1488145;94;22481;-33
2020/12/11 08:35:22;;;;;;;5.22;3.58;;;22.20;37.70;;;;;;1503107;94;21321;-35
2020/12/11 08:37:54;;;;;;;6.42;3.85;;;22.20;37.50;;;;;;1490022;94;21218;-37
2020/12/11 08:40:23;;;;;;;4.58;3.45;;;22.20;38.60;;;;;;1491737;94;21217;-35
2020/12/11 08:46:33;;;;;;;5.12;3.70;;;22.20;38.00;;;;;;1494567;94;67744;-32
2020/12/11 08:48:21;;;;;;;5.12;3.17;;;22.20;37.60;;;;;;1490126;93;21219;-30
2020/12/11 08:50:44;;;;;;;4.33;3.35;;;22.30;37.60;;;;;;1494649;94;21231;-36
2020/12/11 08:53:10;;;;;;;6.92;3.52;;;22.30;38.30;;;;;;1480775;94;21693;-37
2020/12/11 08:55:38;;;;;;;7.72;3.60;;;22.20;38.00;;;;;;1496188;94;21221;-30
2020/12/11 08:58:07;;;;;;;3.62;3.20;;;22.30;38.20;;;;;;1493956;94;21320;-35
2020/12/11 09:00:36;;;;;;;4.42;3.35;;;22.20;37.60;;;;;;1492264;94;21241;-38
2020/12/11 09:03:04;;;;;;;5.22;3.33;;;22.30;37.70;;;;;;1495579;94;21214;-34
2020/12/11 09:05:32;;;;;;;4.42;3.27;;;22.30;38.70;;;;;;1462919;94;21847;-34
2020/12/11 09:08:00;;;;;;;4.78;3.45;;;22.30;37.80;;;;;;1497216;94;21262;-37
2020/12/11 09:10:28;;;;;;;4.00;3.22;;;22.30;37.40;;;;;;1496852;94;21287;-37
2020/12/11 09:12:55;;;;;;;4.40;3.05;;;22.30;37.60;;;;;;1495496;94;21213;-36
2020/12/11 09:15:23;;;;;;;10.23;3.87;;;22.20;37.40;;;;;;1495334;94;21839;-30
2020/12/11 09:17:52;;;;;;;3.20;2.90;;;22.20;37.50;;;;;;1494679;94;21285;-36
2020/12/11 09:20:19;;;;;;;8.43;3.17;;;22.20;37.60;;;;;;1496207;94;21275;-30
2020/12/11 09:22:47;;;;;;;6.03;3.15;;;22.20;37.50;;;;;;1495142;94;21283;-34
2020/12/11 09:25:15;;;;;;;3.62;3.02;;;22.20;37.70;;;;;;1493520;94;21197;-30
2020/12/11 09:27:43;;;;;;;4.78;2.75;;;22.20;37.50;;;;;;1494251;94;21209;-33
2020/12/11 09:30:22;;;;;;;4.53;3.22;;;22.20;37.50;;;;;;1462722;94;21731;-32
2020/12/11 09:35:19;;;;;;;4.25;3.12;;;22.20;37.60;;;;;;1493238;93;21638;-34
2020/12/11 09:37:50;;;;;;;5.30;3.35;;;22.20;37.50;;;;;;1494276;94;22404;-33
2020/12/11 09:40:23;;;;;;;5.12;3.08;;;22.20;37.50;;;;;;1494840;94;21229;-36
2020/12/11 09:48:08;;;;;;;6.58;2.90;;;22.20;37.50;;;;;;1494809;93;21206;-35
2020/12/11 09:50:38;;;;;;;3.62;3.25;;;22.20;37.40;;;;;;1494995;93;21279;-32
2020/12/11 09:55:36;;;;;;;3.72;2.65;;;22.20;37.20;;;;;;1495779;93;22038;-35
2020/12/11 09:57:57;;;;;;;6.50;2.92;;;22.20;37.20;;;;;;1480741;94;21215;-30
2020/12/11 10:00:25;;;;;;;3.75;2.75;;;22.20;37.30;;;;;;1496988;94;21316;-37
2020/12/11 10:03:02;;;;;;;4.20;3.30;;;22.20;37.50;;;;;;1481766;94;21643;-35
2020/12/11 10:05:24;;;;;;;4.30;3.25;;;22.20;37.40;;;;;;1498013;94;21692;-37
2020/12/11 10:07:52;;;;;;;3.45;3.00;;;22.20;37.20;;;;;;1496011;93;21214;-29
2020/12/11 10:10:20;;;;;;;4.00;3.10;;;22.20;37.30;;;;;;1480268;94;21892;-34
2020/12/11 10:12:48;;;;;;;3.33;2.72;;;22.20;37.40;;;;;;1496949;94;21259;-30
2020/12/11 10:15:20;;;;;;;3.15;2.60;;;22.20;37.50;;;;;;1468138;94;21227;-33
2020/12/11 10:17:46;;;;;;;3.75;2.75;;;22.20;37.50;;;;;;1480402;94;21853;-31
2020/12/11 10:20:20;;;;;;;4.53;3.20;;;22.20;37.50;;;;;;1495624;94;21250;-34
2020/12/11 10:22:49;;;;;;;3.45;2.55;;;22.20;37.40;;;;;;1459411;95;21219;-30
2020/12/11 10:25:18;;;;;;;5.35;2.87;;;22.20;37.50;;;;;;1480710;95;21723;-36
2020/12/11 10:27:46;;;;;;;11.35;3.22;;;22.20;37.70;;;;;;1478146;95;21213;-38
2020/12/11 10:30:14;;;;;;;10.98;3.33;;;22.20;38.40;;;;;;1464204;95;21852;-30
2020/12/11 10:32:41;;;;;;;17.98;3.67;;;22.20;39.10;;;;;;1477614;95;21234;-36
2020/12/11 10:35:09;;;;;;;8.58;3.77;;;22.20;39.40;;;;;;1479758;95;21220;-31
2020/12/11 10:37:37;;;;;;;8.25;3.62;;;22.20;39.70;;;;;;1462825;96;21239;-32
2020/12/11 10:40:06;;;;;;;11.48;3.72;;;22.30;40.10;;;;;;1482094;95;21369;-34
2020/12/11 10:42:33;;;;;;;9.10;4.10;;;22.30;40.60;;;;;;1451003;95;21816;-33
2020/12/11 10:45:01;;;;;;;11.10;3.83;;;22.30;40.90;;;;;;1478633;95;21227;-40
2020/12/11 10:47:30;;;;;;;17.25;4.40;;;22.30;40.90;;;;;;1477942;95;22225;-37
2020/12/11 10:49:57;;;;;;;11.33;3.50;;;22.30;40.90;;;;;;1445401;95;21222;-33
2020/12/11 10:52:25;;;;;;;9.45;3.75;;;22.30;41.00;;;;;;1477070;95;21320;-32
2020/12/11 10:54:55;;;;;;;11.25;3.52;;;22.30;41.00;;;;;;1478876;95;21199;-32
2020/12/11 10:57:22;;;;;;;5.87;3.47;;;22.30;41.20;;;;;;1478716;95;21327;-35
2020/12/11 10:59:49;;;;;;;7.75;3.33;;;22.30;41.30;;;;;;1479071;95;21729;-31
2020/12/11 11:02:17;;;;;;;6.35;3.00;;;22.30;41.10;;;;;;1465735;95;21298;-30
2020/12/11 11:04:45;;;;;;;9.95;3.40;;;22.30;41.10;;;;;;1478208;95;21199;-32
2020/12/11 11:07:16;;;;;;;7.85;3.33;;;22.40;41.00;;;;;;1477419;95;22049;-35
2020/12/11 11:10:13;;;;;;;10.20;3.58;;;22.40;40.90;;;;;;1461466;95;21460;-34
2020/12/11 11:12:20;;;;;;;6.58;3.45;;;22.30;40.90;;;;;;1472706;95;21226;-33
2020/12/11 11:23:15;;;;;;;5.37;3.20;;;22.40;40.70;;;;;;1466130;94;68067;-32
2020/12/11 11:28:22;;;;;;;4.25;2.52;;;22.30;40.40;;;;;;1467046;92;67644;-32
2020/12/11 11:30:50;;;;;;;5.12;2.58;;;22.40;40.40;;;;;;1506311;92;21214;-34
2020/12/11 11:33:18;;;;;;;8.63;2.65;;;22.30;40.40;;;;;;1474409;93;21885;-34
2020/12/11 11:35:46;;;;;;;9.30;2.52;;;22.30;40.30;;;;;;1509170;91;21363;-31
2020/12/11 11:38:14;;;;;;;3.52;2.50;;;22.30;40.30;;;;;;1508492;92;22835;-30
2020/12/11 11:40:42;;;;;;;5.35;2.85;;;22.30;40.20;;;;;;1504082;93;21304;-34
2020/12/11 11:43:09;;;;;;;5.62;2.70;;;22.30;40.20;;;;;;1505780;93;21361;-36
2020/12/11 11:45:38;;;;;;;5.72;2.92;;;22.30;40.10;;;;;;1507054;92;21243;-31
2020/12/11 11:48:09;;;;;;;5.30;2.87;;;22.30;40.10;;;;;;1504490;93;21222;-34
2020/12/11 11:50:42;;;;;;;5.05;2.65;;;22.30;40.10;;;;;;1505510;93;21234;-32
2020/12/11 11:53:12;;;;;;;6.37;2.92;;;22.30;40.10;;;;;;1490825;94;21244;-40
2020/12/11 11:55:34;;;;;;;8.53;3.12;;;22.30;40.00;;;;;;1507904;93;21234;-34
2020/12/11 11:58:02;;;;;;;4.03;2.30;;;22.30;40.00;;;;;;1506932;93;21330;-37
2020/12/11 12:00:29;;;;;;;5.20;2.50;;;22.30;40.10;;;;;;1474308;93;21604;-35
2020/12/11 12:02:57;;;;;;;12.05;2.27;;;22.30;39.90;;;;;;1505266;93;21203;-33
2020/12/11 12:05:25;;;;;;;5.70;2.58;;;22.30;39.90;;;;;;1491783;93;21678;-34
2020/12/11 12:07:52;;;;;;;3.83;2.27;;;22.30;39.80;;;;;;1505542;92;21309;-35
2020/12/11 12:10:20;;;;;;;3.42;2.22;;;22.30;39.80;;;;;;1508645;93;21214;-34
2020/12/11 12:12:48;;;;;;;3.65;2.45;;;22.30;39.80;;;;;;1492670;94;21279;-32
2020/12/11 12:15:22;;;;;;;8.05;2.58;;;22.40;39.80;;;;;;1502329;93;21206;-32
2020/12/11 12:17:55;;;;;;;7.42;2.35;;;22.30;39.80;;;;;;1508249;92;21277;-34
2020/12/11 12:20:25;;;;;;;4.78;2.17;;;22.30;39.70;;;;;;1493597;93;21152;-33
2020/12/11 12:28:36;;;;;;;6.25;2.42;;;22.30;39.80;;;;;;1497617;93;68159;-32
2020/12/11 12:30:56;;;;;;;8.08;2.33;;;22.30;39.60;;;;;;1505249;94;67758;-31
2020/12/11 12:43:59;;;;;;;2.35;1.95;;;22.40;39.50;;;;;;1495537;94;67798;-31
2020/12/11 12:46:29;;;;;;;6.25;2.77;;;22.40;39.50;;;;;;1498014;94;21648;-37
2020/12/11 12:48:56;;;;;;;2.52;2.00;;;22.40;39.50;;;;;;1496648;94;21759;-37
2020/12/11 12:51:24;;;;;;;5.85;1.98;;;22.40;39.70;;;;;;1494702;94;21221;-32
2020/12/11 12:53:52;;;;;;;4.67;2.00;;;22.40;39.50;;;;;;1496517;94;21708;-37
2020/12/11 12:56:39;;;;;;;3.92;1.90;;;22.40;39.40;;;;;;1481681;94;21173;-33
2020/12/11 12:59:10;;;;;;;4.45;2.00;;;22.40;39.40;;;;;;1474923;94;68059;-37
2020/12/11 13:06:56;;;;;;;6.08;2.20;;;22.30;39.50;;;;;;1508180;94;21186;-33
2020/12/11 13:09:24;;;;;;;2.83;1.98;;;22.30;39.50;;;;;;1494368;94;21222;-31
2020/12/11 13:11:51;;;;;;;3.98;1.80;;;22.30;39.50;;;;;;1510876;92;21333;-34
2020/12/11 13:14:19;;;;;;;2.22;1.77;;;22.30;39.40;;;;;;1507941;94;22633;-31
2020/12/11 13:16:47;;;;;;;4.37;1.80;;;22.40;39.40;;;;;;1507649;94;21201;-35
2020/12/11 13:19:17;;;;;;;2.27;1.77;;;22.40;39.40;;;;;;1510140;94;21211;-35
2020/12/11 13:22:12;;;;;;;2.10;1.67;;;22.40;39.30;;;;;;1507910;94;21455;-33
2020/12/11 13:27:06;;;;;;;2.80;1.80;;;22.40;39.40;;;;;;1488213;94;67768;-30
2020/12/11 13:29:30;;;;;;;5.17;1.75;;;22.40;39.80;;;;;;1475680;94;21316;-31
2020/12/11 13:31:59;;;;;;;1.85;1.60;;;22.40;39.20;;;;;;1474429;96;21331;-34
2020/12/11 13:34:27;;;;;;;2.20;1.50;;;22.40;39.00;;;;;;1474434;96;21333;-34
2020/12/11 13:36:55;;;;;;;6.83;1.72;;;22.40;39.20;;;;;;1463634;96;21246;-31
2020/12/11 13:39:23;;;;;;;2.37;1.80;;;22.40;39.20;;;;;;1475699;95;21180;-32
2020/12/11 13:41:51;;;;;;;1.60;1.47;;;22.40;39.20;;;;;;1464091;96;21662;-34
2020/12/11 13:44:18;;;;;;;3.17;1.55;;;22.40;39.20;;;;;;1477344;96;21400;-36